Main page
METAR-TAF:

METAR-TAF

Airports :

Custer County Airport

Custer, South Dakota, United States

latitude: 43-43-59N, longitude: 103-37-03W, elevation: 5599 ft

Current weather observation

The report was made 44 minutes ago, at 23:53 UTC
Wind 7 mph from the West
Temperature 50°F
Humidity 34%
Pressure 30.08 in. Hg
Visibility: 10 miles
Clear sky

METAR: KCUT 072353Z AUTO 26006KT 10SM CLR 10/M05 A3008 RMK AO2 SLP168 T01001050 10122 20100 53007

Time: 17:37 (00:37 UTC)


TAF: missing

Weather observations and forecasts of more than 4000 airports (METAR and TAF reports).

The available stations are represented by yellow and red dots on the map.

Hover mouse over dot to see the name of the station.

Then click to see weather observations and forecasts.

To change the map : click on the green buttons with a black cross to zoom in, on the green button with a dash to zoom out, or on the green arrows for adjacent maps.


METAR-TAF: